sensor_id;sensor_type;location;lat;lon;timestamp;pressure;altitude;pressure_sealevel;temperature;humidity
61037;BME280;72210;47.076;15.430;2023-12-20T00:01:14;97047.47;;;1.29;100.00
61037;BME280;72210;47.076;15.430;2023-12-20T00:03:42;97042.44;;;1.26;100.00
61037;BME280;72210;47.076;15.430;2023-12-20T00:06:10;97045.88;;;1.25;100.00
61037;BME280;72210;47.076;15.430;2023-12-20T00:08:37;97029.78;;;1.20;100.00
61037;BME280;72210;47.076;15.430;2023-12-20T00:11:05;97031.53;;;1.18;100.00
61037;BME280;72210;47.076;15.430;2023-12-20T00:13:32;97020.44;;;1.17;100.00
61037;BME280;72210;47.076;15.430;2023-12-20T00:16:00;97021.31;;;1.16;100.00
61037;BME280;72210;47.076;15.430;2023-12-20T00:18:27;97017.81;;;1.19;100.00
61037;BME280;72210;47.076;15.430;2023-12-20T00:20:54;97019.50;;;1.20;100.00
61037;BME280;72210;47.076;15.430;2023-12-20T00:23:21;97015.13;;;1.23;100.00
61037;BME280;72210;47.076;15.430;2023-12-20T00:25:49;97009.13;;;1.24;100.00
61037;BME280;72210;47.076;15.430;2023-12-20T00:28:17;97001.47;;;1.23;100.00
61037;BME280;72210;47.076;15.430;2023-12-20T00:30:45;97002.56;;;1.14;100.00
61037;BME280;72210;47.076;15.430;2023-12-20T00:33:12;97000.22;;;1.06;100.00
61037;BME280;72210;47.076;15.430;2023-12-20T00:35:41;97000.34;;;1.02;100.00
61037;BME280;72210;47.076;15.430;2023-12-20T00:38:08;97003.88;;;0.96;100.00
61037;BME280;72210;47.076;15.430;2023-12-20T00:40:35;97004.00;;;0.92;100.00
61037;BME280;72210;47.076;15.430;2023-12-20T00:43:03;97005.09;;;0.84;100.00
61037;BME280;72210;47.076;15.430;2023-12-20T00:45:32;97000.13;;;0.78;100.00
61037;BME280;72210;47.076;15.430;2023-12-20T00:47:59;97002.84;;;0.72;100.00
61037;BME280;72210;47.076;15.430;2023-12-20T00:50:28;96996.09;;;0.68;100.00
61037;BME280;72210;47.076;15.430;2023-12-20T00:52:56;96991.22;;;0.59;100.00
61037;BME280;72210;47.076;15.430;2023-12-20T00:55:23;96990.69;;;0.46;100.00
61037;BME280;72210;47.076;15.430;2023-12-20T00:57:51;96979.00;;;0.35;100.00
61037;BME280;72210;47.076;15.430;2023-12-20T01:00:18;96972.41;;;0.27;100.00
61037;BME280;72210;47.076;15.430;2023-12-20T01:02:48;96981.13;;;0.18;100.00
61037;BME280;72210;47.076;15.430;2023-12-20T01:05:15;96982.94;;;0.14;100.00
61037;BME280;72210;47.076;15.430;2023-12-20T01:07:42;96987.19;;;0.14;100.00
61037;BME280;72210;47.076;15.430;2023-12-20T01:10:09;96976.16;;;0.12;100.00
61037;BME280;72210;47.076;15.430;2023-12-20T01:12:36;96989.06;;;0.07;100.00
61037;BME280;72210;47.076;15.430;2023-12-20T01:15:05;96982.34;;;0.03;100.00
61037;BME280;72210;47.076;15.430;2023-12-20T01:17:32;96984.91;;;0.03;100.00
61037;BME280;72210;47.076;15.430;2023-12-20T01:20:01;96990.94;;;0.01;100.00
61037;BME280;72210;47.076;15.430;2023-12-20T01:22:28;96989.44;;;-0.08;100.00
61037;BME280;72210;47.076;15.430;2023-12-20T01:24:55;96987.06;;;-0.16;100.00
61037;BME280;72210;47.076;15.430;2023-12-20T01:27:23;96983.84;;;-0.24;100.00
61037;BME280;72210;47.076;15.430;2023-12-20T01:29:50;96989.91;;;-0.30;100.00
61037;BME280;72210;47.076;15.430;2023-12-20T01:32:17;96992.66;;;-0.38;100.00
61037;BME280;72210;47.076;15.430;2023-12-20T01:34:44;96985.91;;;-0.40;100.00
61037;BME280;72210;47.076;15.430;2023-12-20T01:37:14;96986.84;;;-0.44;100.00
61037;BME280;72210;47.076;15.430;2023-12-20T01:39:42;96988.63;;;-0.48;100.00
61037;BME280;72210;47.076;15.430;2023-12-20T01:42:09;96984.44;;;-0.52;100.00
61037;BME280;72210;47.076;15.430;2023-12-20T01:44:36;96987.03;;;-0.53;100.00
61037;BME280;72210;47.076;15.430;2023-12-20T01:47:04;96987.13;;;-0.58;100.00
61037;BME280;72210;47.076;15.430;2023-12-20T01:49:31;96981.25;;;-0.62;100.00
61037;BME280;72210;47.076;15.430;2023-12-20T01:51:58;96969.38;;;-0.66;100.00
61037;BME280;72210;47.076;15.430;2023-12-20T01:54:27;96972.81;;;-0.67;100.00
61037;BME280;72210;47.076;15.430;2023-12-20T01:56:55;96967.66;;;-0.65;100.00
61037;BME280;72210;47.076;15.430;2023-12-20T01:59:22;96960.00;;;-0.65;100.00
61037;BME280;72210;47.076;15.430;2023-12-20T02:01:50;96959.97;;;-0.64;100.00
61037;BME280;72210;47.076;15.430;2023-12-20T02:04:17;96956.59;;;-0.66;100.00
61037;BME280;72210;47.076;15.430;2023-12-20T02:06:46;96943.00;;;-0.68;100.00
61037;BME280;72210;47.076;15.430;2023-12-20T02:09:13;96944.66;;;-0.65;100.00
61037;BME280;72210;47.076;15.430;2023-12-20T02:11:43;96937.00;;;-0.67;100.00
61037;BME280;72210;47.076;15.430;2023-12-20T02:14:10;96928.59;;;-0.72;100.00
61037;BME280;72210;47.076;15.430;2023-12-20T02:16:37;96932.19;;;-0.79;100.00
61037;BME280;72210;47.076;15.430;2023-12-20T02:19:06;96927.13;;;-0.82;100.00
61037;BME280;72210;47.076;15.430;2023-12-20T02:21:41;96925.41;;;-0.82;100.00
61037;BME280;72210;47.076;15.430;2023-12-20T02:24:08;96920.34;;;-0.83;100.00
61037;BME280;72210;47.076;15.430;2023-12-20T02:26:35;96923.72;;;-0.83;100.00
61037;BME280;72210;47.076;15.430;2023-12-20T02:29:03;96904.97;;;-0.82;100.00
61037;BME280;72210;47.076;15.430;2023-12-20T02:31:30;96904.06;;;-0.79;100.00
61037;BME280;72210;47.076;15.430;2023-12-20T02:33:57;96901.47;;;-0.78;100.00
61037;BME280;72210;47.076;15.430;2023-12-20T02:36:24;96884.41;;;-0.77;100.00
61037;BME280;72210;47.076;15.430;2023-12-20T02:38:54;96889.44;;;-0.74;100.00
61037;BME280;72210;47.076;15.430;2023-12-20T02:41:22;96878.44;;;-0.76;100.00
61037;BME280;72210;47.076;15.430;2023-12-20T02:43:49;96874.25;;;-0.80;100.00
61037;BME280;72210;47.076;15.430;2023-12-20T02:46:17;96864.09;;;-0.83;100.00
61037;BME280;72210;47.076;15.430;2023-12-20T02:48:44;96865.75;;;-0.81;100.00
61037;BME280;72210;47.076;15.430;2023-12-20T02:51:12;96874.28;;;-0.82;100.00
61037;BME280;72210;47.076;15.430;2023-12-20T02:53:39;96862.28;;;-0.80;100.00
61037;BME280;72210;47.076;15.430;2023-12-20T02:56:09;96852.00;;;-0.77;100.00
61037;BME280;72210;47.076;15.430;2023-12-20T02:58:36;96849.22;;;-0.67;100.00
61037;BME280;72210;47.076;15.430;2023-12-20T03:01:03;96841.16;;;-0.50;100.00
61037;BME280;72210;47.076;15.430;2023-12-20T03:03:31;96833.19;;;-0.38;100.00
61037;BME280;72210;47.076;15.430;2023-12-20T03:05:58;96824.34;;;-0.25;100.00
61037;BME280;72210;47.076;15.430;2023-12-20T03:08:26;96812.88;;;-0.11;100.00
61037;BME280;72210;47.076;15.430;2023-12-20T03:10:58;96809.97;;;0.03;100.00
61037;BME280;72210;47.076;15.430;2023-12-20T03:13:27;96796.09;;;0.11;100.00
61037;BME280;72210;47.076;15.430;2023-12-20T03:15:54;96798.47;;;0.17;100.00
61037;BME280;72210;47.076;15.430;2023-12-20T03:18:21;96800.00;;;0.23;100.00
61037;BME280;72210;47.076;15.430;2023-12-20T03:20:48;96789.69;;;0.26;100.00
61037;BME280;72210;47.076;15.430;2023-12-20T03:23:16;96786.34;;;0.24;100.00
61037;BME280;72210;47.076;15.430;2023-12-20T03:25:44;96790.84;;;0.16;100.00
61037;BME280;72210;47.076;15.430;2023-12-20T03:28:14;96783.41;;;0.07;100.00
61037;BME280;72210;47.076;15.430;2023-12-20T03:30:43;96777.47;;;0.05;100.00
61037;BME280;72210;47.076;15.430;2023-12-20T03:33:11;96775.59;;;0.11;100.00
61037;BME280;72210;47.076;15.430;2023-12-20T03:35:38;96776.22;;;0.20;100.00
61037;BME280;72210;47.076;15.430;2023-12-20T03:38:06;96775.13;;;0.28;100.00
61037;BME280;72210;47.076;15.430;2023-12-20T03:40:33;96777.56;;;0.33;100.00
61037;BME280;72210;47.076;15.430;2023-12-20T03:43:00;96784.47;;;0.29;100.00
61037;BME280;72210;47.076;15.430;2023-12-20T03:45:28;96785.50;;;0.24;100.00
61037;BME280;72210;47.076;15.430;2023-12-20T03:47:56;96782.50;;;0.08;100.00
61037;BME280;72210;47.076;15.430;2023-12-20T03:50:23;96787.03;;;-0.02;100.00
61037;BME280;72210;47.076;15.430;2023-12-20T03:52:51;96788.25;;;-0.15;100.00
61037;BME280;72210;47.076;15.430;2023-12-20T03:55:18;96782.44;;;-0.22;100.00
61037;BME280;72210;47.076;15.430;2023-12-20T03:57:45;96786.06;;;-0.29;100.00
61037;BME280;72210;47.076;15.430;2023-12-20T04:00:14;96799.97;;;-0.40;100.00
61037;BME280;72210;47.076;15.430;2023-12-20T04:02:42;96806.97;;;-0.46;100.00
61037;BME280;72210;47.076;15.430;2023-12-20T04:05:10;96807.25;;;-0.59;100.00
61037;BME280;72210;47.076;15.430;2023-12-20T04:07:38;96809.22;;;-0.70;100.00
61037;BME280;72210;47.076;15.430;2023-12-20T04:10:06;96811.06;;;-0.77;100.00
61037;BME280;72210;47.076;15.430;2023-12-20T04:12:33;96819.72;;;-0.81;100.00
61037;BME280;72210;47.076;15.430;2023-12-20T04:15:00;96810.47;;;-0.86;100.00
61037;BME280;72210;47.076;15.430;2023-12-20T04:17:27;96806.34;;;-0.94;100.00
61037;BME280;72210;47.076;15.430;2023-12-20T04:19:55;96812.44;;;-0.98;100.00
61037;BME280;72210;47.076;15.430;2023-12-20T04:22:25;96805.59;;;-0.97;100.00
61037;BME280;72210;47.076;15.430;2023-12-20T04:24:52;96809.91;;;-0.99;100.00
61037;BME280;72210;47.076;15.430;2023-12-20T04:27:19;96802.31;;;-1.02;100.00
61037;BME280;72210;47.076;15.430;2023-12-20T04:29:46;96798.81;;;-1.00;100.00
61037;BME280;72210;47.076;15.430;2023-12-20T04:32:13;96807.44;;;-1.02;100.00
61037;BME280;72210;47.076;15.430;2023-12-20T04:34:40;96801.56;;;-1.08;100.00
61037;BME280;72210;47.076;15.430;2023-12-20T04:37:07;96799.94;;;-1.10;100.00
61037;BME280;72210;47.076;15.430;2023-12-20T04:39:36;96794.91;;;-1.15;100.00
61037;BME280;72210;47.076;15.430;2023-12-20T04:42:04;96805.88;;;-1.10;100.00
61037;BME280;72210;47.076;15.430;2023-12-20T04:44:32;96802.59;;;-1.15;100.00
61037;BME280;72210;47.076;15.430;2023-12-20T04:46:59;96794.91;;;-1.15;100.00
61037;BME280;72210;47.076;15.430;2023-12-20T04:49:26;96806.91;;;-1.18;100.00
61037;BME280;72210;47.076;15.430;2023-12-20T04:51:54;96793.38;;;-1.22;100.00
61037;BME280;72210;47.076;15.430;2023-12-20T04:54:21;96796.72;;;-1.20;100.00
61037;BME280;72210;47.076;15.430;2023-12-20T04:56:51;96804.38;;;-1.20;100.00
61037;BME280;72210;47.076;15.430;2023-12-20T04:59:18;96804.28;;;-1.15;100.00
61037;BME280;72210;47.076;15.430;2023-12-20T05:01:45;96804.38;;;-1.20;100.00
61037;BME280;72210;47.076;15.430;2023-12-20T05:04:12;96806.06;;;-1.19;100.00
61037;BME280;72210;47.076;15.430;2023-12-20T05:06:39;96802.72;;;-1.21;100.00
61037;BME280;72210;47.076;15.430;2023-12-20T05:09:07;96816.38;;;-1.23;100.00
61037;BME280;72210;47.076;15.430;2023-12-20T05:11:34;96818.16;;;-1.25;100.00
61037;BME280;72210;47.076;15.430;2023-12-20T05:14:03;96813.94;;;-1.28;100.00
61037;BME280;72210;47.076;15.430;2023-12-20T05:16:30;96799.47;;;-1.29;100.00
61037;BME280;72210;47.076;15.430;2023-12-20T05:18:57;96803.75;;;-1.30;100.00
61037;BME280;72210;47.076;15.430;2023-12-20T05:21:25;96796.09;;;-1.30;100.00
61037;BME280;72210;47.076;15.430;2023-12-20T05:23:52;96795.25;;;-1.30;100.00
61037;BME280;72210;47.076;15.430;2023-12-20T05:26:19;96801.16;;;-1.28;100.00
61037;BME280;72210;47.076;15.430;2023-12-20T05:28:46;96799.38;;;-1.24;100.00
61037;BME280;72210;47.076;15.430;2023-12-20T05:31:15;96793.38;;;-1.22;100.00
61037;BME280;72210;47.076;15.430;2023-12-20T05:33:42;96794.13;;;-1.18;100.00
61037;BME280;72210;47.076;15.430;2023-12-20T05:36:11;96791.53;;;-1.17;100.00
61037;BME280;72210;47.076;15.430;2023-12-20T05:38:38;96790.63;;;-1.14;100.00
61037;BME280;72210;47.076;15.430;2023-12-20T05:41:06;96781.19;;;-1.11;100.00
61037;BME280;72210;47.076;15.430;2023-12-20T05:43:33;96778.59;;;-1.09;100.00
61037;BME280;72210;47.076;15.430;2023-12-20T05:46:00;96768.25;;;-1.04;100.00
61037;BME280;72210;47.076;15.430;2023-12-20T05:48:29;96779.38;;;-1.05;100.00
61037;BME280;72210;47.076;15.430;2023-12-20T05:50:57;96788.63;;;-1.01;100.00
61037;BME280;72210;47.076;15.430;2023-12-20T05:53:24;96779.81;;;-0.88;100.00
61037;BME280;72210;47.076;15.430;2023-12-20T05:55:52;96781.25;;;-0.76;100.00
61037;BME280;72210;47.076;15.430;2023-12-20T05:58:19;96779.13;;;-0.59;100.00
61037;BME280;72210;47.076;15.430;2023-12-20T06:00:47;96759.84;;;-0.39;100.00
61037;BME280;72210;47.076;15.430;2023-12-20T06:03:16;96766.09;;;-0.16;100.00
61037;BME280;72210;47.076;15.430;2023-12-20T06:05:45;96766.34;;;0.06;100.00
61037;BME280;72210;47.076;15.430;2023-12-20T06:08:13;96762.59;;;0.19;100.00
61037;BME280;72210;47.076;15.430;2023-12-20T06:10:41;96759.59;;;0.34;100.00
61037;BME280;72210;47.076;15.430;2023-12-20T06:13:08;96759.09;;;0.51;100.00
61037;BME280;72210;47.076;15.430;2023-12-20T06:15:35;96758.69;;;0.65;100.00
61037;BME280;72210;47.076;15.430;2023-12-20T06:18:03;96752.38;;;0.76;100.00
61037;BME280;72210;47.076;15.430;2023-12-20T06:20:32;96752.78;;;0.90;100.00
61037;BME280;72210;47.076;15.430;2023-12-20T06:23:01;96744.88;;;0.98;100.00
61037;BME280;72210;47.076;15.430;2023-12-20T06:25:28;96751.28;;;1.11;100.00
61037;BME280;72210;47.076;15.430;2023-12-20T06:27:57;96738.22;;;1.19;100.00
61037;BME280;72210;47.076;15.430;2023-12-20T06:30:24;96744.84;;;1.26;100.00
61037;BME280;72210;47.076;15.430;2023-12-20T06:32:52;96735.13;;;1.36;100.00
61037;BME280;72210;47.076;15.430;2023-12-20T06:35:19;96735.78;;;1.41;100.00
61037;BME280;72210;47.076;15.430;2023-12-20T06:37:47;96730.41;;;1.49;100.00
61037;BME280;72210;47.076;15.430;2023-12-20T06:40:16;96735.28;;;1.56;100.00
61037;BME280;72210;47.076;15.430;2023-12-20T06:42:45;96741.88;;;1.64;100.00
61037;BME280;72210;47.076;15.430;2023-12-20T06:45:31;96746.81;;;1.70;100.00
61037;BME280;72210;47.076;15.430;2023-12-20T06:47:59;96741.47;;;1.76;100.00
61037;BME280;72210;47.076;15.430;2023-12-20T06:50:27;96741.19;;;1.84;100.00
61037;BME280;72210;47.076;15.430;2023-12-20T06:52:54;96751.94;;;1.95;100.00
61037;BME280;72210;47.076;15.430;2023-12-20T06:55:23;96751.59;;;2.04;100.00
61037;BME280;72210;47.076;15.430;2023-12-20T06:57:50;96752.16;;;2.12;100.00
61037;BME280;72210;47.076;15.430;2023-12-20T07:00:18;96752.00;;;2.17;100.00
61037;BME280;72210;47.076;15.430;2023-12-20T07:02:45;96747.34;;;2.27;100.00
61037;BME280;72210;47.076;15.430;2023-12-20T07:05:16;96758.16;;;2.37;100.00
61037;BME280;72210;47.076;15.430;2023-12-20T07:07:43;96763.84;;;2.45;100.00
61037;BME280;72210;47.076;15.430;2023-12-20T07:10:11;96772.00;;;2.56;100.00
61037;BME280;72210;47.076;15.430;2023-12-20T07:12:40;96775.97;;;2.65;100.00
61037;BME280;72210;47.076;15.430;2023-12-20T07:15:08;96774.84;;;2.72;100.00
61037;BME280;72210;47.076;15.430;2023-12-20T07:17:35;96763.34;;;2.81;100.00
61037;BME280;72210;47.076;15.430;2023-12-20T07:20:04;96772.34;;;2.93;100.00
61037;BME280;72210;47.076;15.430;2023-12-20T07:22:33;96789.94;;;3.03;100.00
61037;BME280;72210;47.076;15.430;2023-12-20T07:25:01;96787.72;;;3.16;100.00
61037;BME280;72210;47.076;15.430;2023-12-20T07:27:28;96794.38;;;3.22;100.00
61037;BME280;72210;47.076;15.430;2023-12-20T07:29:57;96802.78;;;3.26;100.00
61037;BME280;72210;47.076;15.430;2023-12-20T07:32:24;96804.59;;;3.23;100.00
61037;BME280;72210;47.076;15.430;2023-12-20T07:34:52;96816.66;;;3.21;100.00
61037;BME280;72210;47.076;15.430;2023-12-20T07:37:19;96812.44;;;3.20;100.00
61037;BME280;72210;47.076;15.430;2023-12-20T07:39:46;96816.25;;;3.10;100.00
61037;BME280;72210;47.076;15.430;2023-12-20T07:42:13;96814.69;;;3.06;100.00
61037;BME280;72210;47.076;15.430;2023-12-20T07:44:41;96825.78;;;3.08;100.00
61037;BME280;72210;47.076;15.430;2023-12-20T07:47:10;96822.53;;;3.03;100.00
61037;BME280;72210;47.076;15.430;2023-12-20T07:49:37;96826.13;;;2.99;100.00
61037;BME280;72210;47.076;15.430;2023-12-20T07:52:05;96829.66;;;2.96;100.00
61037;BME280;72210;47.076;15.430;2023-12-20T07:54:33;96828.94;;;2.93;100.00
61037;BME280;72210;47.076;15.430;2023-12-20T07:57:00;96854.22;;;2.81;100.00
61037;BME280;72210;47.076;15.430;2023-12-20T07:59:27;96851.88;;;2.75;100.00
61037;BME280;72210;47.076;15.430;2023-12-20T08:01:58;96860.53;;;2.73;100.00
61037;BME280;72210;47.076;15.430;2023-12-20T08:04:28;96854.56;;;2.72;100.00
61037;BME280;72210;47.076;15.430;2023-12-20T08:06:56;96858.72;;;2.75;100.00
61037;BME280;72210;47.076;15.430;2023-12-20T08:09:23;96858.50;;;2.81;100.00
61037;BME280;72210;47.076;15.430;2023-12-20T08:11:51;96853.31;;;2.82;100.00
61037;BME280;72210;47.076;15.430;2023-12-20T08:14:18;96849.91;;;2.82;100.00
61037;BME280;72210;47.076;15.430;2023-12-20T08:16:45;96855.00;;;2.83;100.00
61037;BME280;72210;47.076;15.430;2023-12-20T08:19:15;96850.50;;;2.88;100.00
61037;BME280;72210;47.076;15.430;2023-12-20T08:21:46;96857.16;;;2.94;100.00
61037;BME280;72210;47.076;15.430;2023-12-20T08:24:13;96848.31;;;3.01;100.00
61037;BME280;72210;47.076;15.430;2023-12-20T08:26:40;96862.69;;;3.07;100.00
61037;BME280;72210;47.076;15.430;2023-12-20T08:29:08;96851.38;;;3.11;100.00
61037;BME280;72210;47.076;15.430;2023-12-20T08:31:35;96855.28;;;3.21;100.00
61037;BME280;72210;47.076;15.430;2023-12-20T08:34:02;96854.72;;;3.35;100.00
61037;BME280;72210;47.076;15.430;2023-12-20T08:36:32;96856.84;;;3.48;100.00
61037;BME280;72210;47.076;15.430;2023-12-20T08:39:02;96841.88;;;3.57;100.00
61037;BME280;72210;47.076;15.430;2023-12-20T08:41:29;96855.72;;;3.75;100.00
61037;BME280;72210;47.076;15.430;2023-12-20T08:43:56;96857.88;;;3.86;100.00
61037;BME280;72210;47.076;15.430;2023-12-20T08:46:23;96856.59;;;3.97;100.00
61037;BME280;72210;47.076;15.430;2023-12-20T08:48:51;96866.78;;;4.00;100.00
61037;BME280;72210;47.076;15.430;2023-12-20T08:51:18;96861.69;;;3.98;100.00
61037;BME280;72210;47.076;15.430;2023-12-20T08:53:45;96867.53;;;4.02;100.00
61037;BME280;72210;47.076;15.430;2023-12-20T08:56:14;96871.22;;;3.96;100.00
61037;BME280;72210;47.076;15.430;2023-12-20T08:58:42;96879.91;;;3.93;100.00
61037;BME280;72210;47.076;15.430;2023-12-20T09:01:09;96871.34;;;3.93;100.00
61037;BME280;72210;47.076;15.430;2023-12-20T09:03:36;96872.88;;;3.97;100.00
61037;BME280;72210;47.076;15.430;2023-12-20T09:06:04;96876.97;;;4.03;100.00
61037;BME280;72210;47.076;15.430;2023-12-20T09:08:31;96876.72;;;3.87;100.00
61037;BME280;72210;47.076;15.430;2023-12-20T09:10:58;96880.66;;;3.75;100.00
61037;BME280;72210;47.076;15.430;2023-12-20T09:13:28;96867.91;;;3.72;100.00
61037;BME280;72210;47.076;15.430;2023-12-20T09:15:56;96860.38;;;3.88;100.00
61037;BME280;72210;47.076;15.430;2023-12-20T09:18:23;96846.56;;;4.11;100.00
61037;BME280;72210;47.076;15.430;2023-12-20T09:20:51;96850.53;;;3.98;100.00
61037;BME280;72210;47.076;15.430;2023-12-20T09:23:18;96855.16;;;4.10;100.00
61037;BME280;72210;47.076;15.430;2023-12-20T09:25:46;96860.06;;;4.16;100.00
61037;BME280;72210;47.076;15.430;2023-12-20T09:28:13;96857.25;;;4.02;100.00
61037;BME280;72210;47.076;15.430;2023-12-20T09:30:42;96851.44;;;3.97;100.00
61037;BME280;72210;47.076;15.430;2023-12-20T09:33:09;96856.72;;;3.93;100.00
61037;BME280;72210;47.076;15.430;2023-12-20T09:35:37;96858.88;;;4.04;100.00
61037;BME280;72210;47.076;15.430;2023-12-20T09:38:04;96870.25;;;4.19;100.00
61037;BME280;72210;47.076;15.430;2023-12-20T09:40:32;96878.91;;;4.39;100.00
61037;BME280;72210;47.076;15.430;2023-12-20T09:43:04;96868.19;;;4.48;100.00
61037;BME280;72210;47.076;15.430;2023-12-20T09:45:31;96870.94;;;4.64;100.00
61037;BME280;72210;47.076;15.430;2023-12-20T09:48:03;96863.47;;;4.77;100.00
61037;BME280;72210;47.076;15.430;2023-12-20T09:50:31;96845.25;;;5.00;100.00
61037;BME280;72210;47.076;15.430;2023-12-20T09:53:01;96835.03;;;5.16;100.00
61037;BME280;72210;47.076;15.430;2023-12-20T09:55:30;96827.25;;;5.35;100.00
61037;BME280;72210;47.076;15.430;2023-12-20T09:57:59;96826.59;;;5.49;100.00
61037;BME280;72210;47.076;15.430;2023-12-20T10:00:27;96839.31;;;5.71;100.00
61037;BME280;72210;47.076;15.430;2023-12-20T10:02:57;96836.22;;;6.35;100.00
61037;BME280;72210;47.076;15.430;2023-12-20T10:05:29;96825.72;;;6.71;100.00
61037;BME280;72210;47.076;15.430;2023-12-20T10:07:57;96831.97;;;6.83;100.00
61037;BME280;72210;47.076;15.430;2023-12-20T10:10:25;96817.09;;;6.71;100.00
61037;BME280;72210;47.076;15.430;2023-12-20T10:13:09;96824.13;;;6.35;100.00
61037;BME280;72210;47.076;15.430;2023-12-20T10:15:38;96839.78;;;6.32;100.00
61037;BME280;72210;47.076;15.430;2023-12-20T10:18:06;96821.31;;;6.22;100.00
61037;BME280;72210;47.076;15.430;2023-12-20T10:20:35;96828.50;;;6.00;100.00
61037;BME280;72210;47.076;15.430;2023-12-20T10:23:03;96821.84;;;5.77;100.00
61037;BME280;72210;47.076;15.430;2023-12-20T10:25:30;96829.38;;;5.81;100.00
61037;BME280;72210;47.076;15.430;2023-12-20T10:28:09;96815.41;;;6.03;100.00
61037;BME280;72210;47.076;15.430;2023-12-20T10:30:37;96801.94;;;6.14;100.00
61037;BME280;72210;47.076;15.430;2023-12-20T10:33:06;96801.63;;;6.20;100.00
61037;BME280;72210;47.076;15.430;2023-12-20T10:35:35;96813.56;;;6.22;100.00
61037;BME280;72210;47.076;15.430;2023-12-20T10:38:04;96804.28;;;6.36;100.00
61037;BME280;72210;47.076;15.430;2023-12-20T10:40:34;96812.63;;;6.41;100.00
61037;BME280;72210;47.076;15.430;2023-12-20T10:43:02;96811.31;;;6.50;100.00
61037;BME280;72210;47.076;15.430;2023-12-20T10:45:30;96808.56;;;6.53;100.00
61037;BME280;72210;47.076;15.430;2023-12-20T10:47:58;96808.41;;;6.56;100.00
61037;BME280;72210;47.076;15.430;2023-12-20T10:50:27;96806.81;;;6.53;100.00
61037;BME280;72210;47.076;15.430;2023-12-20T10:52:56;96802.53;;;6.52;100.00
61037;BME280;72210;47.076;15.430;2023-12-20T10:55:24;96797.94;;;6.41;100.00
61037;BME280;72210;47.076;15.430;2023-12-20T10:57:52;96795.81;;;6.32;100.00
61037;BME280;72210;47.076;15.430;2023-12-20T11:00:23;96796.38;;;6.21;100.00
61037;BME280;72210;47.076;15.430;2023-12-20T11:02:51;96792.28;;;6.17;100.00
61037;BME280;72210;47.076;15.430;2023-12-20T11:05:28;96778.06;;;6.08;100.00
61037;BME280;72210;47.076;15.430;2023-12-20T11:08:07;96789.81;;;5.98;100.00
61037;BME280;72210;47.076;15.430;2023-12-20T11:10:43;96796.63;;;5.99;100.00
61037;BME280;72210;47.076;15.430;2023-12-20T11:13:21;96787.22;;;5.98;100.00
61037;BME280;72210;47.076;15.430;2023-12-20T11:15:50;96783.56;;;6.02;100.00
61037;BME280;72210;47.076;15.430;2023-12-20T11:18:17;96783.47;;;6.04;100.00
61037;BME280;72210;47.076;15.430;2023-12-20T11:20:45;96776.53;;;6.04;100.00
61037;BME280;72210;47.076;15.430;2023-12-20T11:23:16;96794.78;;;6.19;100.00
61037;BME280;72210;47.076;15.430;2023-12-20T11:25:47;96791.59;;;6.31;100.00
61037;BME280;72210;47.076;15.430;2023-12-20T11:28:16;96781.50;;;6.42;100.00
61037;BME280;72210;47.076;15.430;2023-12-20T11:30:51;96785.22;;;6.54;100.00
61037;BME280;72210;47.076;15.430;2023-12-20T11:33:22;96770.84;;;6.64;100.00
61037;BME280;72210;47.076;15.430;2023-12-20T11:35:56;96776.44;;;6.57;100.00
61037;BME280;72210;47.076;15.430;2023-12-20T11:38:26;96781.84;;;6.52;100.00
61037;BME280;72210;47.076;15.430;2023-12-20T11:40:54;96777.53;;;6.53;100.00
61037;BME280;72210;47.076;15.430;2023-12-20T11:43:31;96772.59;;;6.48;100.00
61037;BME280;72210;47.076;15.430;2023-12-20T11:46:03;96771.31;;;6.39;100.00
61037;BME280;72210;47.076;15.430;2023-12-20T11:48:31;96763.63;;;6.38;100.00
61037;BME280;72210;47.076;15.430;2023-12-20T11:50:58;96767.22;;;6.35;100.00
61037;BME280;72210;47.076;15.430;2023-12-20T11:53:27;96763.06;;;6.49;100.00
61037;BME280;72210;47.076;15.430;2023-12-20T11:55:55;96764.69;;;6.67;100.00
61037;BME280;72210;47.076;15.430;2023-12-20T11:58:23;96754.50;;;6.80;100.00
61037;BME280;72210;47.076;15.430;2023-12-20T12:00:51;96749.88;;;7.17;100.00
61037;BME280;72210;47.076;15.430;2023-12-20T12:03:20;96742.16;;;7.31;100.00
61037;BME280;72210;47.076;15.430;2023-12-20T12:05:48;96740.25;;;7.35;100.00
61037;BME280;72210;47.076;15.430;2023-12-20T12:08:15;96747.00;;;7.37;100.00
61037;BME280;72210;47.076;15.430;2023-12-20T12:10:46;96749.03;;;7.32;100.00
61037;BME280;72210;47.076;15.430;2023-12-20T12:13:13;96744.28;;;7.25;100.00
61037;BME280;72210;47.076;15.430;2023-12-20T12:15:42;96741.22;;;7.18;100.00
61037;BME280;72210;47.076;15.430;2023-12-20T12:18:15;96733.78;;;7.12;100.00
61037;BME280;72210;47.076;15.430;2023-12-20T12:20:43;96722.25;;;7.01;100.00
61037;BME280;72210;47.076;15.430;2023-12-20T12:23:10;96730.53;;;6.92;100.00
61037;BME280;72210;47.076;15.430;2023-12-20T12:25:38;96734.81;;;6.93;100.00
61037;BME280;72210;47.076;15.430;2023-12-20T12:28:11;96720.34;;;6.89;100.00
61037;BME280;72210;47.076;15.430;2023-12-20T12:30:38;96717.75;;;6.89;100.00
61037;BME280;72210;47.076;15.430;2023-12-20T12:33:19;96719.69;;;6.86;100.00
61037;BME280;72210;47.076;15.430;2023-12-20T12:35:46;96729.28;;;6.83;100.00
61037;BME280;72210;47.076;15.430;2023-12-20T12:38:14;96724.88;;;6.86;100.00
61037;BME280;72210;47.076;15.430;2023-12-20T12:40:43;96719.84;;;6.82;100.00
61037;BME280;72210;47.076;15.430;2023-12-20T12:43:12;96712.34;;;6.78;100.00
61037;BME280;72210;47.076;15.430;2023-12-20T12:45:39;96714.94;;;6.62;100.00
61037;BME280;72210;47.076;15.430;2023-12-20T12:48:07;96720.28;;;6.59;100.00
61037;BME280;72210;47.076;15.430;2023-12-20T12:50:34;96720.38;;;6.57;100.00
61037;BME280;72210;47.076;15.430;2023-12-20T12:53:02;96718.44;;;6.61;100.00